sensor_id;sensor_type;location;lat;lon;timestamp;temperature;humidity
45619;DHT22;31343;47.520;19.144;2024-02-23T00:00:10;10.30;99.90
45619;DHT22;31343;47.520;19.144;2024-02-23T00:02:37;10.30;99.90
45619;DHT22;31343;47.520;19.144;2024-02-23T00:05:03;10.30;99.90
45619;DHT22;31343;47.520;19.144;2024-02-23T00:07:29;10.30;99.90
45619;DHT22;31343;47.520;19.144;2024-02-23T00:09:54;10.40;99.90
45619;DHT22;31343;47.520;19.144;2024-02-23T00:12:20;10.40;99.90
45619;DHT22;31343;47.520;19.144;2024-02-23T00:14:46;10.40;99.90
45619;DHT22;31343;47.520;19.144;2024-02-23T00:17:12;10.50;99.90
45619;DHT22;31343;47.520;19.144;2024-02-23T00:19:38;10.50;99.90
45619;DHT22;31343;47.520;19.144;2024-02-23T00:22:03;10.40;99.90
45619;DHT22;31343;47.520;19.144;2024-02-23T00:24:29;10.50;99.90
45619;DHT22;31343;47.520;19.144;2024-02-23T00:26:55;10.50;99.90
45619;DHT22;31343;47.520;19.144;2024-02-23T00:29:21;10.50;99.90
45619;DHT22;31343;47.520;19.144;2024-02-23T00:31:48;10.60;99.90
45619;DHT22;31343;47.520;19.144;2024-02-23T00:34:14;10.60;99.90
45619;DHT22;31343;47.520;19.144;2024-02-23T00:36:41;10.60;99.90
45619;DHT22;31343;47.520;19.144;2024-02-23T00:39:07;10.60;99.90
45619;DHT22;31343;47.520;19.144;2024-02-23T00:41:34;10.60;99.90
45619;DHT22;31343;47.520;19.144;2024-02-23T00:44:00;10.70;99.90
45619;DHT22;31343;47.520;19.144;2024-02-23T00:46:26;10.70;99.90
45619;DHT22;31343;47.520;19.144;2024-02-23T00:48:52;10.70;99.90
45619;DHT22;31343;47.520;19.144;2024-02-23T00:51:17;10.70;99.90
45619;DHT22;31343;47.520;19.144;2024-02-23T00:53:43;10.70;99.90
45619;DHT22;31343;47.520;19.144;2024-02-23T00:56:09;10.70;99.90
45619;DHT22;31343;47.520;19.144;2024-02-23T00:58:34;10.70;99.90
45619;DHT22;31343;47.520;19.144;2024-02-23T01:01:00;10.70;99.90
45619;DHT22;31343;47.520;19.144;2024-02-23T01:03:26;10.70;99.90
45619;DHT22;31343;47.520;19.144;2024-02-23T01:05:51;10.70;99.90
45619;DHT22;31343;47.520;19.144;2024-02-23T01:08:17;10.70;99.90
45619;DHT22;31343;47.520;19.144;2024-02-23T01:10:43;10.70;99.90
45619;DHT22;31343;47.520;19.144;2024-02-23T01:13:09;10.80;99.90
45619;DHT22;31343;47.520;19.144;2024-02-23T01:15:34;10.70;99.90
45619;DHT22;31343;47.520;19.144;2024-02-23T01:18:00;10.70;99.90
45619;DHT22;31343;47.520;19.144;2024-02-23T01:20:25;10.70;99.90
45619;DHT22;31343;47.520;19.144;2024-02-23T01:22:51;10.70;99.90
45619;DHT22;31343;47.520;19.144;2024-02-23T01:25:17;10.60;99.90
45619;DHT22;31343;47.520;19.144;2024-02-23T01:27:43;10.60;99.90
45619;DHT22;31343;47.520;19.144;2024-02-23T01:30:12;10.60;99.90
45619;DHT22;31343;47.520;19.144;2024-02-23T01:32:37;10.50;99.90
45619;DHT22;31343;47.520;19.144;2024-02-23T01:35:05;10.50;99.90
45619;DHT22;31343;47.520;19.144;2024-02-23T01:37:31;10.40;99.90
45619;DHT22;31343;47.520;19.144;2024-02-23T01:39:58;10.40;99.90
45619;DHT22;31343;47.520;19.144;2024-02-23T01:42:24;10.30;99.90
45619;DHT22;31343;47.520;19.144;2024-02-23T01:44:51;10.20;99.90
45619;DHT22;31343;47.520;19.144;2024-02-23T01:47:17;10.20;99.90
45619;DHT22;31343;47.520;19.144;2024-02-23T01:49:45;10.10;99.90
45619;DHT22;31343;47.520;19.144;2024-02-23T01:52:12;10.00;99.90
45619;DHT22;31343;47.520;19.144;2024-02-23T01:54:38;9.90;99.90
45619;DHT22;31343;47.520;19.144;2024-02-23T01:57:04;9.90;99.90
45619;DHT22;31343;47.520;19.144;2024-02-23T01:59:30;9.90;99.90
45619;DHT22;31343;47.520;19.144;2024-02-23T02:01:55;9.80;99.90
45619;DHT22;31343;47.520;19.144;2024-02-23T02:04:21;9.70;99.90
45619;DHT22;31343;47.520;19.144;2024-02-23T02:06:47;9.70;99.90
45619;DHT22;31343;47.520;19.144;2024-02-23T02:09:14;9.60;99.90
45619;DHT22;31343;47.520;19.144;2024-02-23T02:11:49;9.60;99.90
45619;DHT22;31343;47.520;19.144;2024-02-23T02:14:15;9.60;99.90
45619;DHT22;31343;47.520;19.144;2024-02-23T02:16:41;9.50;99.90
45619;DHT22;31343;47.520;19.144;2024-02-23T02:19:07;9.50;99.90
45619;DHT22;31343;47.520;19.144;2024-02-23T02:21:33;9.50;99.90
45619;DHT22;31343;47.520;19.144;2024-02-23T02:23:59;9.50;99.90
45619;DHT22;31343;47.520;19.144;2024-02-23T02:26:25;9.50;99.90
45619;DHT22;31343;47.520;19.144;2024-02-23T02:28:51;9.50;99.90
45619;DHT22;31343;47.520;19.144;2024-02-23T02:31:18;9.50;99.90
45619;DHT22;31343;47.520;19.144;2024-02-23T02:33:44;9.50;99.90
45619;DHT22;31343;47.520;19.144;2024-02-23T02:36:09;9.50;99.90
45619;DHT22;31343;47.520;19.144;2024-02-23T02:38:35;9.50;99.90
45619;DHT22;31343;47.520;19.144;2024-02-23T02:41:01;9.50;99.90
45619;DHT22;31343;47.520;19.144;2024-02-23T02:43:27;9.40;99.90
45619;DHT22;31343;47.520;19.144;2024-02-23T02:45:53;9.40;99.90
45619;DHT22;31343;47.520;19.144;2024-02-23T02:48:18;9.40;99.90
45619;DHT22;31343;47.520;19.144;2024-02-23T02:50:44;9.30;99.90
45619;DHT22;31343;47.520;19.144;2024-02-23T02:53:10;9.30;99.90
45619;DHT22;31343;47.520;19.144;2024-02-23T02:55:45;9.30;99.90
45619;DHT22;31343;47.520;19.144;2024-02-23T02:58:13;9.30;99.90
45619;DHT22;31343;47.520;19.144;2024-02-23T03:00:39;9.30;99.90
45619;DHT22;31343;47.520;19.144;2024-02-23T03:03:05;9.30;99.90
45619;DHT22;31343;47.520;19.144;2024-02-23T03:05:31;9.30;99.90
45619;DHT22;31343;47.520;19.144;2024-02-23T03:07:57;9.20;99.90
45619;DHT22;31343;47.520;19.144;2024-02-23T03:10:22;9.20;99.90
45619;DHT22;31343;47.520;19.144;2024-02-23T03:12:48;9.20;99.90
45619;DHT22;31343;47.520;19.144;2024-02-23T03:15:13;9.10;99.90
45619;DHT22;31343;47.520;19.144;2024-02-23T03:17:39;9.10;99.90
45619;DHT22;31343;47.520;19.144;2024-02-23T03:20:05;9.10;99.90
45619;DHT22;31343;47.520;19.144;2024-02-23T03:22:35;9.10;99.90
45619;DHT22;31343;47.520;19.144;2024-02-23T03:25:01;9.10;99.90
45619;DHT22;31343;47.520;19.144;2024-02-23T03:27:33;9.00;99.90
45619;DHT22;31343;47.520;19.144;2024-02-23T03:29:59;9.00;99.90
45619;DHT22;31343;47.520;19.144;2024-02-23T03:32:25;9.00;99.90
45619;DHT22;31343;47.520;19.144;2024-02-23T03:34:50;8.90;99.90
45619;DHT22;31343;47.520;19.144;2024-02-23T03:37:16;8.90;99.90
45619;DHT22;31343;47.520;19.144;2024-02-23T03:39:41;8.80;99.90
45619;DHT22;31343;47.520;19.144;2024-02-23T03:42:07;8.80;99.90
45619;DHT22;31343;47.520;19.144;2024-02-23T03:44:33;8.80;99.90
45619;DHT22;31343;47.520;19.144;2024-02-23T03:46:58;8.80;99.90
45619;DHT22;31343;47.520;19.144;2024-02-23T03:49:24;8.80;99.90
45619;DHT22;31343;47.520;19.144;2024-02-23T03:51:49;8.80;99.90
45619;DHT22;31343;47.520;19.144;2024-02-23T03:54:15;8.80;99.90
45619;DHT22;31343;47.520;19.144;2024-02-23T03:56:41;8.80;99.90
45619;DHT22;31343;47.520;19.144;2024-02-23T03:59:08;8.90;99.90
45619;DHT22;31343;47.520;19.144;2024-02-23T04:01:38;9.00;99.90
45619;DHT22;31343;47.520;19.144;2024-02-23T04:04:05;9.00;99.90
45619;DHT22;31343;47.520;19.144;2024-02-23T04:06:30;9.00;99.90
45619;DHT22;31343;47.520;19.144;2024-02-23T04:08:56;9.00;99.90
45619;DHT22;31343;47.520;19.144;2024-02-23T04:11:22;9.00;99.90
45619;DHT22;31343;47.520;19.144;2024-02-23T04:13:47;9.00;99.90
45619;DHT22;31343;47.520;19.144;2024-02-23T04:16:13;9.00;99.90
45619;DHT22;31343;47.520;19.144;2024-02-23T04:18:39;9.00;99.90
45619;DHT22;31343;47.520;19.144;2024-02-23T04:21:04;9.00;99.90
45619;DHT22;31343;47.520;19.144;2024-02-23T04:23:30;9.00;99.90
45619;DHT22;31343;47.520;19.144;2024-02-23T04:25:56;9.00;99.90
45619;DHT22;31343;47.520;19.144;2024-02-23T04:28:21;9.10;99.90
45619;DHT22;31343;47.520;19.144;2024-02-23T04:30:47;9.00;99.90
45619;DHT22;31343;47.520;19.144;2024-02-23T04:33:13;9.00;99.90
45619;DHT22;31343;47.520;19.144;2024-02-23T04:35:38;9.00;99.90
45619;DHT22;31343;47.520;19.144;2024-02-23T04:38:04;8.90;99.90
45619;DHT22;31343;47.520;19.144;2024-02-23T04:40:30;8.90;99.90
45619;DHT22;31343;47.520;19.144;2024-02-23T04:42:55;8.90;99.90
45619;DHT22;31343;47.520;19.144;2024-02-23T04:45:21;8.90;99.90
45619;DHT22;31343;47.520;19.144;2024-02-23T04:47:46;8.90;99.90
45619;DHT22;31343;47.520;19.144;2024-02-23T04:50:14;8.90;99.90
45619;DHT22;31343;47.520;19.144;2024-02-23T04:52:39;8.90;99.90
45619;DHT22;31343;47.520;19.144;2024-02-23T04:55:05;8.90;99.90
45619;DHT22;31343;47.520;19.144;2024-02-23T04:57:36;8.90;99.90
45619;DHT22;31343;47.520;19.144;2024-02-23T05:00:03;8.90;99.90
45619;DHT22;31343;47.520;19.144;2024-02-23T05:02:29;8.90;99.90
45619;DHT22;31343;47.520;19.144;2024-02-23T05:05:03;8.90;99.90
45619;DHT22;31343;47.520;19.144;2024-02-23T05:07:33;9.00;99.90
45619;DHT22;31343;47.520;19.144;2024-02-23T05:09:59;9.00;99.90
45619;DHT22;31343;47.520;19.144;2024-02-23T05:12:25;9.10;99.90
45619;DHT22;31343;47.520;19.144;2024-02-23T05:14:51;9.30;99.90
45619;DHT22;31343;47.520;19.144;2024-02-23T05:17:17;9.40;99.90
45619;DHT22;31343;47.520;19.144;2024-02-23T05:19:42;9.40;99.90
45619;DHT22;31343;47.520;19.144;2024-02-23T05:22:09;9.50;99.90
45619;DHT22;31343;47.520;19.144;2024-02-23T05:24:35;9.50;99.90
45619;DHT22;31343;47.520;19.144;2024-02-23T05:27:00;9.50;99.90
45619;DHT22;31343;47.520;19.144;2024-02-23T05:29:28;9.50;99.90
45619;DHT22;31343;47.520;19.144;2024-02-23T05:31:54;9.50;99.90
45619;DHT22;31343;47.520;19.144;2024-02-23T05:34:20;9.40;99.90
45619;DHT22;31343;47.520;19.144;2024-02-23T05:36:47;9.40;99.90
45619;DHT22;31343;47.520;19.144;2024-02-23T05:39:13;9.30;99.90
45619;DHT22;31343;47.520;19.144;2024-02-23T05:41:43;9.40;99.90
45619;DHT22;31343;47.520;19.144;2024-02-23T05:44:09;9.40;99.90
45619;DHT22;31343;47.520;19.144;2024-02-23T05:46:36;9.40;99.90
45619;DHT22;31343;47.520;19.144;2024-02-23T05:49:02;9.40;99.90
45619;DHT22;31343;47.520;19.144;2024-02-23T05:51:29;9.40;99.90
45619;DHT22;31343;47.520;19.144;2024-02-23T05:53:56;9.40;99.90
45619;DHT22;31343;47.520;19.144;2024-02-23T05:56:21;9.40;99.90
45619;DHT22;31343;47.520;19.144;2024-02-23T05:58:49;9.30;99.90
45619;DHT22;31343;47.520;19.144;2024-02-23T06:01:14;9.20;99.90
45619;DHT22;31343;47.520;19.144;2024-02-23T06:03:40;9.20;99.90
45619;DHT22;31343;47.520;19.144;2024-02-23T06:06:08;9.20;99.90
45619;DHT22;31343;47.520;19.144;2024-02-23T06:08:35;9.10;99.90
45619;DHT22;31343;47.520;19.144;2024-02-23T06:11:01;9.00;99.90
45619;DHT22;31343;47.520;19.144;2024-02-23T06:13:29;8.90;99.90
45619;DHT22;31343;47.520;19.144;2024-02-23T06:15:54;8.90;99.90
45619;DHT22;31343;47.520;19.144;2024-02-23T06:18:20;8.80;99.90
45619;DHT22;31343;47.520;19.144;2024-02-23T06:20:46;8.80;99.90
45619;DHT22;31343;47.520;19.144;2024-02-23T06:23:11;8.70;99.90
45619;DHT22;31343;47.520;19.144;2024-02-23T06:25:37;8.70;99.90
45619;DHT22;31343;47.520;19.144;2024-02-23T06:28:03;8.70;99.90
45619;DHT22;31343;47.520;19.144;2024-02-23T06:30:28;8.70;99.90
45619;DHT22;31343;47.520;19.144;2024-02-23T06:32:54;8.70;99.90
45619;DHT22;31343;47.520;19.144;2024-02-23T06:35:19;8.60;99.90
45619;DHT22;31343;47.520;19.144;2024-02-23T06:37:47;8.60;99.90
45619;DHT22;31343;47.520;19.144;2024-02-23T06:40:13;8.60;99.90
45619;DHT22;31343;47.520;19.144;2024-02-23T06:42:38;8.70;99.90
45619;DHT22;31343;47.520;19.144;2024-02-23T06:45:04;8.70;99.90
45619;DHT22;31343;47.520;19.144;2024-02-23T06:47:30;8.70;99.90
45619;DHT22;31343;47.520;19.144;2024-02-23T06:49:56;8.70;99.90
45619;DHT22;31343;47.520;19.144;2024-02-23T06:52:21;8.70;99.90
45619;DHT22;31343;47.520;19.144;2024-02-23T06:54:48;8.70;99.90
45619;DHT22;31343;47.520;19.144;2024-02-23T06:57:14;8.80;99.90
45619;DHT22;31343;47.520;19.144;2024-02-23T06:59:39;8.70;99.90
45619;DHT22;31343;47.520;19.144;2024-02-23T07:02:06;8.70;99.90
45619;DHT22;31343;47.520;19.144;2024-02-23T07:04:31;8.70;99.90
45619;DHT22;31343;47.520;19.144;2024-02-23T07:06:58;8.70;99.90
45619;DHT22;31343;47.520;19.144;2024-02-23T07:09:23;8.80;99.90
45619;DHT22;31343;47.520;19.144;2024-02-23T07:11:50;8.70;99.90
45619;DHT22;31343;47.520;19.144;2024-02-23T07:14:15;8.80;99.90
45619;DHT22;31343;47.520;19.144;2024-02-23T07:16:42;8.80;99.90
45619;DHT22;31343;47.520;19.144;2024-02-23T07:19:08;8.80;99.90
45619;DHT22;31343;47.520;19.144;2024-02-23T07:21:35;8.80;99.90
45619;DHT22;31343;47.520;19.144;2024-02-23T07:24:00;8.90;99.90
45619;DHT22;31343;47.520;19.144;2024-02-23T07:26:26;9.00;99.90
45619;DHT22;31343;47.520;19.144;2024-02-23T07:28:55;9.00;99.90
45619;DHT22;31343;47.520;19.144;2024-02-23T07:31:20;9.00;99.90
45619;DHT22;31343;47.520;19.144;2024-02-23T07:33:46;9.00;99.90
45619;DHT22;31343;47.520;19.144;2024-02-23T07:36:16;9.00;99.90
45619;DHT22;31343;47.520;19.144;2024-02-23T07:38:41;9.00;99.90
45619;DHT22;31343;47.520;19.144;2024-02-23T07:41:09;9.00;99.90
45619;DHT22;31343;47.520;19.144;2024-02-23T07:43:35;9.00;99.90
45619;DHT22;31343;47.520;19.144;2024-02-23T07:46:01;9.00;99.90
45619;DHT22;31343;47.520;19.144;2024-02-23T07:48:27;9.00;99.90
45619;DHT22;31343;47.520;19.144;2024-02-23T07:50:53;9.00;99.90
45619;DHT22;31343;47.520;19.144;2024-02-23T07:53:19;9.10;99.90
45619;DHT22;31343;47.520;19.144;2024-02-23T07:55:44;9.10;99.90
45619;DHT22;31343;47.520;19.144;2024-02-23T07:58:10;9.10;99.90
45619;DHT22;31343;47.520;19.144;2024-02-23T08:00:35;9.20;99.90
45619;DHT22;31343;47.520;19.144;2024-02-23T08:03:04;9.20;99.90
45619;DHT22;31343;47.520;19.144;2024-02-23T08:05:29;9.20;99.90
45619;DHT22;31343;47.520;19.144;2024-02-23T08:07:55;9.30;99.90
45619;DHT22;31343;47.520;19.144;2024-02-23T08:10:21;9.40;99.90
45619;DHT22;31343;47.520;19.144;2024-02-23T08:12:47;9.30;99.90
45619;DHT22;31343;47.520;19.144;2024-02-23T08:15:13;9.30;99.90
45619;DHT22;31343;47.520;19.144;2024-02-23T08:17:38;9.40;99.90
45619;DHT22;31343;47.520;19.144;2024-02-23T08:20:04;9.40;99.90
45619;DHT22;31343;47.520;19.144;2024-02-23T08:22:30;9.40;99.90
45619;DHT22;31343;47.520;19.144;2024-02-23T08:24:56;9.50;99.90
45619;DHT22;31343;47.520;19.144;2024-02-23T08:27:22;9.50;99.90
45619;DHT22;31343;47.520;19.144;2024-02-23T08:29:48;9.50;99.90
45619;DHT22;31343;47.520;19.144;2024-02-23T08:32:14;9.40;99.90
45619;DHT22;31343;47.520;19.144;2024-02-23T08:34:39;9.40;99.90
45619;DHT22;31343;47.520;19.144;2024-02-23T08:37:05;9.40;99.90
45619;DHT22;31343;47.520;19.144;2024-02-23T08:39:30;9.50;99.90
45619;DHT22;31343;47.520;19.144;2024-02-23T08:41:56;9.50;99.90
45619;DHT22;31343;47.520;19.144;2024-02-23T08:44:22;9.50;99.90
45619;DHT22;31343;47.520;19.144;2024-02-23T08:46:47;9.60;99.90
45619;DHT22;31343;47.520;19.144;2024-02-23T08:49:14;9.60;99.90
45619;DHT22;31343;47.520;19.144;2024-02-23T08:51:41;9.60;99.90
45619;DHT22;31343;47.520;19.144;2024-02-23T08:54:07;9.60;99.90
45619;DHT22;31343;47.520;19.144;2024-02-23T08:56:39;9.60;99.90
45619;DHT22;31343;47.520;19.144;2024-02-23T08:59:08;9.60;99.90
45619;DHT22;31343;47.520;19.144;2024-02-23T09:01:35;9.70;99.90
45619;DHT22;31343;47.520;19.144;2024-02-23T09:04:01;9.60;99.90
45619;DHT22;31343;47.520;19.144;2024-02-23T09:06:27;9.60;99.90
45619;DHT22;31343;47.520;19.144;2024-02-23T09:08:52;9.50;99.90
45619;DHT22;31343;47.520;19.144;2024-02-23T09:11:18;9.50;99.90
45619;DHT22;31343;47.520;19.144;2024-02-23T09:13:44;9.50;99.90
45619;DHT22;31343;47.520;19.144;2024-02-23T09:16:09;9.60;99.90
45619;DHT22;31343;47.520;19.144;2024-02-23T09:18:35;9.60;99.90
45619;DHT22;31343;47.520;19.144;2024-02-23T09:21:01;9.70;99.90
45619;DHT22;31343;47.520;19.144;2024-02-23T09:23:27;9.70;99.90
45619;DHT22;31343;47.520;19.144;2024-02-23T09:25:52;9.70;99.90
45619;DHT22;31343;47.520;19.144;2024-02-23T09:28:18;9.70;99.90
45619;DHT22;31343;47.520;19.144;2024-02-23T09:30:44;9.80;99.90
45619;DHT22;31343;47.520;19.144;2024-02-23T09:33:09;9.80;99.90
45619;DHT22;31343;47.520;19.144;2024-02-23T09:35:35;9.80;99.90
45619;DHT22;31343;47.520;19.144;2024-02-23T09:38:01;9.80;99.90
45619;DHT22;31343;47.520;19.144;2024-02-23T09:40:26;9.80;99.90
45619;DHT22;31343;47.520;19.144;2024-02-23T09:42:56;9.80;99.90
45619;DHT22;31343;47.520;19.144;2024-02-23T09:45:26;9.80;99.90
45619;DHT22;31343;47.520;19.144;2024-02-23T09:47:54;9.80;99.90
45619;DHT22;31343;47.520;19.144;2024-02-23T09:50:23;9.80;99.90
45619;DHT22;31343;47.520;19.144;2024-02-23T09:52:50;9.80;99.90
45619;DHT22;31343;47.520;19.144;2024-02-23T09:55:17;9.90;99.90
45619;DHT22;31343;47.520;19.144;2024-02-23T09:57:44;9.90;99.90
45619;DHT22;31343;47.520;19.144;2024-02-23T10:00:12;9.90;99.90
45619;DHT22;31343;47.520;19.144;2024-02-23T10:02:37;9.90;99.90
45619;DHT22;31343;47.520;19.144;2024-02-23T10:05:05;9.90;99.90
45619;DHT22;31343;47.520;19.144;2024-02-23T10:07:32;10.00;99.90
45619;DHT22;31343;47.520;19.144;2024-02-23T10:09:58;10.00;99.90
45619;DHT22;31343;47.520;19.144;2024-02-23T10:12:24;10.00;99.90
45619;DHT22;31343;47.520;19.144;2024-02-23T10:14:50;10.00;99.90
45619;DHT22;31343;47.520;19.144;2024-02-23T10:17:15;9.90;99.90
45619;DHT22;31343;47.520;19.144;2024-02-23T10:19:41;10.00;99.90
45619;DHT22;31343;47.520;19.144;2024-02-23T10:22:07;9.90;99.90
45619;DHT22;31343;47.520;19.144;2024-02-23T10:24:32;9.90;99.90
45619;DHT22;31343;47.520;19.144;2024-02-23T10:26:58;10.00;99.90
45619;DHT22;31343;47.520;19.144;2024-02-23T10:29:25;9.90;99.90
45619;DHT22;31343;47.520;19.144;2024-02-23T10:31:52;10.00;99.90
45619;DHT22;31343;47.520;19.144;2024-02-23T10:34:22;10.00;99.90
45619;DHT22;31343;47.520;19.144;2024-02-23T10:36:48;10.00;99.90
45619;DHT22;31343;47.520;19.144;2024-02-23T10:39:16;10.10;99.90
45619;DHT22;31343;47.520;19.144;2024-02-23T10:42:06;10.10;99.90
45619;DHT22;31343;47.520;19.144;2024-02-23T10:44:34;10.10;99.90
45619;DHT22;31343;47.520;19.144;2024-02-23T10:47:01;10.20;99.90
45619;DHT22;31343;47.520;19.144;2024-02-23T10:49:28;10.20;99.90
45619;DHT22;31343;47.520;19.144;2024-02-23T10:51:55;10.30;99.90
45619;DHT22;31343;47.520;19.144;2024-02-23T10:54:22;10.30;99.90
45619;DHT22;31343;47.520;19.144;2024-02-23T10:56:50;10.40;99.90
45619;DHT22;31343;47.520;19.144;2024-02-23T10:59:19;10.40;99.90
45619;DHT22;31343;47.520;19.144;2024-02-23T11:01:49;10.50;99.90
45619;DHT22;31343;47.520;19.144;2024-02-23T11:04:16;10.50;99.90
45619;DHT22;31343;47.520;19.144;2024-02-23T11:06:42;10.60;99.90
45619;DHT22;31343;47.520;19.144;2024-02-23T11:09:14;10.60;99.90
45619;DHT22;31343;47.520;19.144;2024-02-23T11:11:52;10.70;99.90
45619;DHT22;31343;47.520;19.144;2024-02-23T11:14:18;10.60;99.90
45619;DHT22;31343;47.520;19.144;2024-02-23T11:16:54;10.70;99.90
45619;DHT22;31343;47.520;19.144;2024-02-23T11:19:19;10.70;99.90
45619;DHT22;31343;47.520;19.144;2024-02-23T11:21:52;10.80;99.90
45619;DHT22;31343;47.520;19.144;2024-02-23T11:24:18;11.00;99.90
45619;DHT22;31343;47.520;19.144;2024-02-23T11:26:43;11.00;99.90
45619;DHT22;31343;47.520;19.144;2024-02-23T11:29:11;11.00;99.90
45619;DHT22;31343;47.520;19.144;2024-02-23T11:31:45;11.00;99.90
45619;DHT22;31343;47.520;19.144;2024-02-23T11:34:11;10.90;99.90
45619;DHT22;31343;47.520;19.144;2024-02-23T11:36:38;10.90;99.90
45619;DHT22;31343;47.520;19.144;2024-02-23T11:39:04;11.00;99.90
45619;DHT22;31343;47.520;19.144;2024-02-23T11:41:31;11.00;99.90
45619;DHT22;31343;47.520;19.144;2024-02-23T11:43:57;11.00;99.90
45619;DHT22;31343;47.520;19.144;2024-02-23T11:46:25;11.00;99.90
45619;DHT22;31343;47.520;19.144;2024-02-23T11:48:51;11.10;99.90
45619;DHT22;31343;47.520;19.144;2024-02-23T11:51:23;11.10;99.90
45619;DHT22;31343;47.520;19.144;2024-02-23T11:53:50;11.20;99.90
45619;DHT22;31343;47.520;19.144;2024-02-23T11:56:16;11.20;99.90
45619;DHT22;31343;47.520;19.144;2024-02-23T11:58:43;11.20;99.90
45619;DHT22;31343;47.520;19.144;2024-02-23T12:01:09;11.20;99.90
45619;DHT22;31343;47.520;19.144;2024-02-23T12:03:35;11.30;99.90
45619;DHT22;31343;47.520;19.144;2024-02-23T12:06:02;11.30;99.90
45619;DHT22;31343;47.520;19.144;2024-02-23T12:08:30;11.30;99.90
45619;DHT22;31343;47.520;19.144;2024-02-23T12:10:57;11.30;99.90
45619;DHT22;31343;47.520;19.144;2024-02-23T12:13:26;11.30;99.90
45619;DHT22;31343;47.520;19.144;2024-02-23T12:15:53;11.30;99.90
45619;DHT22;31343;47.520;19.144;2024-02-23T12:18:21;11.40;99.90
45619;DHT22;31343;47.520;19.144;2024-02-23T12:20:49;11.40;99.90
45619;DHT22;31343;47.520;19.144;2024-02-23T12:23:15;11.60;99.90
45619;DHT22;31343;47.520;19.144;2024-02-23T12:25:52;11.80;99.90
45619;DHT22;31343;47.520;19.144;2024-02-23T12:28:18;11.80;99.90
45619;DHT22;31343;47.520;19.144;2024-02-23T12:30:44;11.70;99.90
45619;DHT22;31343;47.520;19.144;2024-02-23T12:33:15;11.60;99.90
45619;DHT22;31343;47.520;19.144;2024-02-23T12:35:41;11.60;99.90
45619;DHT22;31343;47.520;19.144;2024-02-23T12:38:07;11.70;99.90
45619;DHT22;31343;47.520;19.144;2024-02-23T12:40:32;11.70;99.90
45619;DHT22;31343;47.520;19.144;2024-02-23T12:42:58;11.70;99.90
45619;DHT22;31343;47.520;19.144;2024-02-23T12:45:24;11.60;99.90
45619;DHT22;31343;47.520;19.144;2024-02-23T12:47:49;11.60;99.90
45619;DHT22;31343;47.520;19.144;2024-02-23T12:50:15;11.60;99.90
45619;DHT22;31343;47.520;19.144;2024-02-23T12:52:40;11.50;99.90
45619;DHT22;31343;47.520;19.144;2024-02-23T12:55:07;11.50;99.90
45619;DHT22;31343;47.520;19.144;2024-02-23T12:57:33;11.50;99.90
45619;DHT22;31343;47.520;19.144;2024-02-23T12:59:59;11.50;99.90
45619;DHT22;31343;47.520;19.144;2024-02-23T13:02:24;11.40;99.90
45619;DHT22;31343;47.520;19.144;2024-02-23T13:04:50;11.40;99.90
45619;DHT22;31343;47.520;19.144;2024-02-23T13:07:16;11.40;99.90
45619;DHT22;31343;47.520;19.144;2024-02-23T13:09:45;11.40;99.90
45619;DHT22;31343;47.520;19.144;2024-02-23T13:12:10;11.30;99.90
45619;DHT22;31343;47.520;19.144;2024-02-23T13:14:36;11.30;99.90
45619;DHT22;31343;47.520;19.144;2024-02-23T13:17:02;11.30;99.90
45619;DHT22;31343;47.520;19.144;2024-02-23T13:19:29;11.30;99.90
45619;DHT22;31343;47.520;19.144;2024-02-23T13:21:54;11.30;99.90
45619;DHT22;31343;47.520;19.144;2024-02-23T13:24:20;11.30;99.90
45619;DHT22;31343;47.520;19.144;2024-02-23T13:26:46;11.30;99.90
45619;DHT22;31343;47.520;19.144;2024-02-23T13:29:11;11.40;99.90
45619;DHT22;31343;47.520;19.144;2024-02-23T13:31:38;11.40;99.90
45619;DHT22;31343;47.520;19.144;2024-02-23T13:34:05;11.40;99.90
45619;DHT22;31343;47.520;19.144;2024-02-23T13:36:30;11.40;99.90
45619;DHT22;31343;47.520;19.144;2024-02-23T13:38:56;11.40;99.90
45619;DHT22;31343;47.520;19.144;2024-02-23T13:41:22;11.40;99.90
45619;DHT22;31343;47.520;19.144;2024-02-23T13:43:47;11.40;99.90
45619;DHT22;31343;47.520;19.144;2024-02-23T13:46:13;11.30;99.90
45619;DHT22;31343;47.520;19.144;2024-02-23T13:48:39;11.30;99.90
45619;DHT22;31343;47.520;19.144;2024-02-23T13:51:04;11.30;99.90
45619;DHT22;31343;47.520;19.144;2024-02-23T13:53:31;11.30;99.90
45619;DHT22;31343;47.520;19.144;2024-02-23T13:55:57;11.40;99.90
45619;DHT22;31343;47.520;19.144;2024-02-23T13:58:22;11.50;99.90
45619;DHT22;31343;47.520;19.144;2024-02-23T14:00:48;11.50;99.90
45619;DHT22;31343;47.520;19.144;2024-02-23T14:03:16;11.60;99.90
45619;DHT22;31343;47.520;19.144;2024-02-23T14:05:46;11.60;99.90
45619;DHT22;31343;47.520;19.144;2024-02-23T14:08:12;11.60;99.90
45619;DHT22;31343;47.520;19.144;2024-02-23T14:10:38;11.60;99.90
45619;DHT22;31343;47.520;19.144;2024-02-23T14:13:05;11.50;99.90
45619;DHT22;31343;47.520;19.144;2024-02-23T14:15:31;11.50;99.90
45619;DHT22;31343;47.520;19.144;2024-02-23T14:17:57;11.50;99.90
45619;DHT22;31343;47.520;19.144;2024-02-23T14:20:23;11.50;99.90
45619;DHT22;31343;47.520;19.144;2024-02-23T14:22:49;11.50;99.90
45619;DHT22;31343;47.520;19.144;2024-02-23T14:25:15;11.50;99.90
45619;DHT22;31343;47.520;19.144;2024-02-23T14:27:41;11.50;99.90
45619;DHT22;31343;47.520;19.144;2024-02-23T14:30:07;11.40;99.90
45619;DHT22;31343;47.520;19.144;2024-02-23T14:32:33;11.40;99.90
45619;DHT22;31343;47.520;19.144;2024-02-23T14:35:01;11.50;99.90
45619;DHT22;31343;47.520;19.144;2024-02-23T14:37:28;11.40;99.90
45619;DHT22;31343;47.520;19.144;2024-02-23T14:39:54;11.40;99.90
45619;DHT22;31343;47.520;19.144;2024-02-23T14:42:20;11.30;99.90
45619;DHT22;31343;47.520;19.144;2024-02-23T14:44:45;11.30;99.90
45619;DHT22;31343;47.520;19.144;2024-02-23T14:47:11;11.30;99.90
45619;DHT22;31343;47.520;19.144;2024-02-23T14:49:38;11.30;99.90
45619;DHT22;31343;47.520;19.144;2024-02-23T14:52:04;11.30;99.90
45619;DHT22;31343;47.520;19.144;2024-02-23T14:54:30;11.30;99.90
45619;DHT22;31343;47.520;19.144;2024-02-23T14:56:55;11.20;99.90
45619;DHT22;31343;47.520;19.144;2024-02-23T14:59:21;11.20;99.90
45619;DHT22;31343;47.520;19.144;2024-02-23T15:01:47;11.20;99.90
45619;DHT22;31343;47.520;19.144;2024-02-23T15:04:12;11.20;99.90
45619;DHT22;31343;47.520;19.144;2024-02-23T15:06:38;11.20;99.90
45619;DHT22;31343;47.520;19.144;2024-02-23T15:09:04;11.30;99.90
45619;DHT22;31343;47.520;19.144;2024-02-23T15:11:30;11.20;99.90
45619;DHT22;31343;47.520;19.144;2024-02-23T15:13:56;11.20;99.90
45619;DHT22;31343;47.520;19.144;2024-02-23T15:16:28;11.10;99.90
45619;DHT22;31343;47.520;19.144;2024-02-23T15:18:56;11.10;99.90